Time;durP1;ratioP1;P1;durP2;ratioP2;P2;SDS_P1;SDS_P2;PMS_P1;PMS_P2;Temp;Humidity;BMP_temperature;BMP_pressure;BME280_temperature;BME280_humidity;BME280_pressure;Samples;Min_cycle;Max_cycle;Signal;HPM_P1;HPM_P2
2021/01/28 00:00:58;;;;;;;58.92;31.05;;;6.90;99.90;;;;;;5079273;28;20072;-81
2021/01/28 00:03:24;;;;;;;45.63;22.50;;;7.00;99.90;;;;;;5076743;28;20131;-82
2021/01/28 00:05:51;;;;;;;48.20;22.25;;;6.90;99.90;;;;;;5079716;28;20128;-80
2021/01/28 00:08:18;;;;;;;53.78;22.95;;;6.90;99.90;;;;;;5078195;28;20080;-78
2021/01/28 00:10:44;;;;;;;45.67;24.42;;;6.80;99.90;;;;;;5077538;28;20127;-79
2021/01/28 00:13:12;;;;;;;42.40;23.02;;;6.80;99.90;;;;;;5078317;28;20469;-79
2021/01/28 00:15:40;;;;;;;42.75;20.67;;;6.80;99.90;;;;;;5074183;28;20546;-79
2021/01/28 00:18:08;;;;;;;40.50;19.77;;;6.80;99.90;;;;;;5056554;28;20128;-82
2021/01/28 00:20:37;;;;;;;40.00;21.50;;;6.90;99.90;;;;;;5059782;28;20091;-81
2021/01/28 00:23:04;;;;;;;47.33;21.33;;;6.90;99.90;;;;;;5057684;28;20060;-80
2021/01/28 00:25:31;;;;;;;45.38;22.17;;;6.90;99.90;;;;;;5057825;28;20132;-79
2021/01/28 00:27:58;;;;;;;44.15;21.95;;;6.90;99.90;;;;;;5058156;28;20108;-80
2021/01/28 00:30:27;;;;;;;37.40;20.27;;;6.90;99.90;;;;;;5058171;28;20132;-79
2021/01/28 00:32:53;;;;;;;42.13;20.98;;;6.90;99.90;;;;;;5057739;28;20083;-81
2021/01/28 00:35:25;;;;;;;44.25;19.83;;;6.90;99.90;;;;;;5057006;28;20123;-81
2021/01/28 00:37:52;;;;;;;38.67;19.08;;;6.90;99.90;;;;;;5057728;28;20084;-80
2021/01/28 00:40:19;;;;;;;34.85;18.10;;;6.80;99.90;;;;;;5058304;28;20130;-80
2021/01/28 00:42:47;;;;;;;39.42;16.52;;;6.80;99.90;;;;;;5060184;28;20085;-80
2021/01/28 00:45:16;;;;;;;32.53;14.95;;;6.80;99.90;;;;;;5060935;28;20073;-80
2021/01/28 00:47:42;;;;;;;31.75;14.00;;;6.70;99.90;;;;;;5060683;28;20132;-80
2021/01/28 00:50:10;;;;;;;33.47;15.27;;;6.70;99.90;;;;;;5061332;28;20501;-80
2021/01/28 00:52:39;;;;;;;31.83;15.00;;;6.70;99.90;;;;;;5060390;28;20060;-80
2021/01/28 00:55:07;;;;;;;33.35;14.95;;;6.80;99.90;;;;;;5058341;28;20527;-80
2021/01/28 00:57:34;;;;;;;28.60;14.45;;;6.80;99.90;;;;;;5061586;28;20109;-81
2021/01/28 01:00:01;;;;;;;34.20;14.45;;;6.80;99.90;;;;;;5072331;28;20041;-82
2021/01/28 01:02:27;;;;;;;29.35;14.00;;;6.90;99.90;;;;;;5073499;28;20068;-79
2021/01/28 01:04:55;;;;;;;24.30;13.27;;;6.90;99.90;;;;;;5064438;28;20072;-80
2021/01/28 01:08:11;;;;;;;30.00;13.23;;;6.90;99.90;;;;;;5061842;28;20497;-80
2021/01/28 01:10:40;;;;;;;25.92;12.80;;;6.90;99.90;;;;;;5060543;28;20080;-81
2021/01/28 01:13:07;;;;;;;32.63;13.85;;;6.90;99.90;;;;;;5061933;28;20132;-80
2021/01/28 01:15:35;;;;;;;22.50;12.35;;;6.90;99.90;;;;;;5060783;28;20084;-80
2021/01/28 01:18:02;;;;;;;29.33;12.50;;;6.90;99.90;;;;;;5061231;28;20132;-80
2021/01/28 01:20:29;;;;;;;31.77;13.60;;;6.90;99.90;;;;;;5061180;28;20529;-81
2021/01/28 01:22:55;;;;;;;32.70;13.95;;;6.90;99.90;;;;;;5060427;28;20044;-81
2021/01/28 01:25:22;;;;;;;29.48;12.38;;;6.90;99.90;;;;;;5059627;28;20124;-81
2021/01/28 01:27:48;;;;;;;26.00;13.13;;;6.70;99.90;;;;;;5061067;28;20045;-82
2021/01/28 01:30:17;;;;;;;26.13;14.00;;;6.70;99.90;;;;;;5061236;28;20056;-80
2021/01/28 01:32:45;;;;;;;29.35;13.75;;;6.70;99.90;;;;;;5060960;28;20080;-80
2021/01/28 01:35:14;;;;;;;26.52;14.35;;;6.70;99.90;;;;;;5061302;28;20104;-80
2021/01/28 01:37:41;;;;;;;31.95;14.27;;;6.70;99.90;;;;;;5060679;28;20049;-80
2021/01/28 01:40:10;;;;;;;33.63;15.93;;;6.70;99.90;;;;;;5060578;28;20084;-81
2021/01/28 01:42:38;;;;;;;35.95;16.55;;;6.70;99.90;;;;;;5073322;28;20088;-79
2021/01/28 01:47:36;;;;;;;32.38;18.17;;;6.70;99.90;;;;;;5051591;22;20053;-78
2021/01/28 01:50:07;;;;;;;36.03;19.08;;;6.80;99.90;;;;;;5041323;28;20477;-78
2021/01/28 01:52:35;;;;;;;38.15;18.67;;;6.70;99.90;;;;;;5045036;28;20077;-78
2021/01/28 01:55:03;;;;;;;35.65;18.85;;;6.60;99.90;;;;;;5046229;28;20049;-79
2021/01/28 01:57:35;;;;;;;37.97;18.40;;;6.60;99.90;;;;;;5024740;28;20509;-79
2021/01/28 02:00:07;;;;;;;38.00;18.17;;;6.50;99.90;;;;;;5026972;28;20073;-79
2021/01/28 02:02:37;;;;;;;33.85;18.73;;;6.50;99.90;;;;;;5025766;28;20438;-79
2021/01/28 02:05:13;;;;;;;33.03;17.33;;;6.50;99.90;;;;;;5024978;28;20050;-78
2021/01/28 02:07:40;;;;;;;27.58;17.10;;;6.50;99.90;;;;;;5023552;28;20085;-78
2021/01/28 02:10:08;;;;;;;32.05;15.82;;;6.50;99.90;;;;;;5024394;28;20442;-79
2021/01/28 02:12:34;;;;;;;25.92;12.68;;;6.50;99.90;;;;;;5024415;28;20177;-78
2021/01/28 02:15:01;;;;;;;22.02;11.90;;;6.50;99.90;;;;;;5024530;28;20081;-79
2021/01/28 02:17:28;;;;;;;25.42;13.30;;;6.50;99.90;;;;;;5023158;28;20307;-78
2021/01/28 02:20:20;;;;;;;27.35;12.98;;;6.50;99.90;;;;;;5022702;28;20057;-78
2021/01/28 02:22:53;;;;;;;24.98;12.60;;;6.60;99.90;;;;;;5023961;28;20469;-79
2021/01/28 02:25:24;;;;;;;25.87;12.13;;;6.50;99.90;;;;;;5024055;28;20081;-78
2021/01/28 02:27:52;;;;;;;26.70;12.45;;;6.40;99.90;;;;;;5023093;28;20296;-79
2021/01/28 02:30:23;;;;;;;33.00;14.32;;;6.30;99.90;;;;;;5024010;28;20045;-78
2021/01/28 02:32:50;;;;;;;26.00;13.07;;;6.20;99.90;;;;;;5021391;28;20082;-78
2021/01/28 02:35:20;;;;;;;28.48;14.93;;;6.20;99.90;;;;;;5019966;28;20481;-78
2021/01/28 02:37:47;;;;;;;27.98;14.23;;;6.20;99.90;;;;;;5018250;28;20076;-78
2021/01/28 02:40:15;;;;;;;32.03;14.80;;;6.20;99.90;;;;;;5016475;28;20085;-78
2021/01/28 02:42:43;;;;;;;29.00;13.55;;;6.30;99.90;;;;;;5019231;28;20081;-77
2021/01/28 02:45:15;;;;;;;26.15;13.07;;;6.30;99.90;;;;;;5018979;28;20129;-79
2021/01/28 02:47:42;;;;;;;;;;;6.30;99.90;;;;;;5018444;28;20085;-78
2021/01/28 02:50:09;;;;;;;24.48;12.07;;;6.30;99.90;;;;;;5018555;28;20392;-78
2021/01/28 02:52:36;;;;;;;27.20;12.93;;;6.10;99.90;;;;;;5018301;28;20100;-78
2021/01/28 02:55:03;;;;;;;22.67;11.93;;;6.10;99.90;;;;;;5017954;28;20462;-78
2021/01/28 02:57:29;;;;;;;26.73;13.35;;;6.00;99.90;;;;;;5017967;28;20057;-79
2021/01/28 02:59:57;;;;;;;26.88;12.13;;;5.90;99.90;;;;;;5019447;28;20133;-79
2021/01/28 03:02:23;;;;;;;27.58;12.63;;;5.90;99.90;;;;;;5017164;28;20057;-79
2021/01/28 03:04:49;;;;;;;24.02;11.63;;;5.90;99.90;;;;;;5017049;28;20541;-80
2021/01/28 03:07:16;;;;;;;24.77;11.77;;;5.90;99.90;;;;;;5029713;28;20053;-77
2021/01/28 03:09:43;;;;;;;23.95;12.15;;;5.80;99.90;;;;;;5014833;28;20455;-77
2021/01/28 03:12:10;;;;;;;23.13;12.05;;;5.70;99.90;;;;;;5013586;28;20129;-77
2021/01/28 03:14:36;;;;;;;29.27;13.02;;;5.60;99.90;;;;;;5015331;28;20129;-77
2021/01/28 03:17:04;;;;;;;30.25;12.23;;;5.60;99.90;;;;;;5015376;28;20046;-78
2021/01/28 03:19:32;;;;;;;25.77;13.10;;;5.60;99.90;;;;;;5014428;28;20143;-78
2021/01/28 03:21:58;;;;;;;21.35;12.18;;;5.70;99.90;;;;;;5013650;28;20093;-78
2021/01/28 03:24:25;;;;;;;22.83;11.60;;;5.70;99.90;;;;;;5012711;28;20422;-78
2021/01/28 03:26:51;;;;;;;22.02;11.05;;;5.70;99.90;;;;;;5013104;28;20441;-78
2021/01/28 03:29:18;;;;;;;26.15;11.90;;;5.70;99.90;;;;;;5013784;28;20136;-77
2021/01/28 03:31:45;;;;;;;24.23;11.45;;;5.60;99.90;;;;;;5014312;28;20132;-77
2021/01/28 03:34:13;;;;;;;18.65;10.90;;;5.60;99.90;;;;;;5012970;28;20132;-77
2021/01/28 03:36:39;;;;;;;23.50;11.82;;;5.60;99.90;;;;;;5013161;28;20451;-78
2021/01/28 03:39:06;;;;;;;21.42;11.18;;;5.70;99.90;;;;;;5015754;28;20138;-78
2021/01/28 03:41:33;;;;;;;24.85;10.38;;;5.70;99.90;;;;;;5016522;28;20111;-77
2021/01/28 03:43:59;;;;;;;23.02;11.40;;;5.70;99.90;;;;;;5014434;28;20132;-78
2021/01/28 03:46:26;;;;;;;20.60;11.30;;;5.70;99.90;;;;;;5012494;28;20077;-77
2021/01/28 03:48:52;;;;;;;21.90;11.40;;;5.70;99.90;;;;;;5013614;28;20118;-77
2021/01/28 03:51:20;;;;;;;17.55;11.40;;;5.80;99.90;;;;;;5014085;28;20458;-77
2021/01/28 03:53:46;;;;;;;22.73;11.85;;;5.70;99.90;;;;;;5014136;28;20137;-77
2021/01/28 03:56:13;;;;;;;18.88;10.82;;;5.70;99.90;;;;;;5015350;28;20148;-78
2021/01/28 03:58:39;;;;;;;17.92;10.90;;;5.70;99.90;;;;;;5017889;28;20049;-77
2021/01/28 04:01:06;;;;;;;23.13;10.77;;;5.70;99.90;;;;;;5017976;28;20080;-79
2021/01/28 04:03:32;;;;;;;17.17;9.70;;;5.80;99.90;;;;;;5017023;28;20081;-78
2021/01/28 04:05:58;;;;;;;18.27;10.10;;;5.80;99.90;;;;;;5018911;28;20077;-78
2021/01/28 04:08:26;;;;;;;17.65;9.70;;;5.80;99.90;;;;;;5018414;28;20133;-78
2021/01/28 04:10:52;;;;;;;19.48;10.18;;;5.80;99.90;;;;;;5021028;28;20046;-78
2021/01/28 04:13:19;;;;;;;19.27;10.60;;;5.80;99.90;;;;;;5018261;28;20108;-78
2021/01/28 04:15:45;;;;;;;17.17;10.68;;;5.70;99.90;;;;;;5017215;28;20057;-78
2021/01/28 04:18:12;;;;;;;20.85;11.88;;;5.70;99.90;;;;;;5018465;28;20494;-78
2021/01/28 04:20:39;;;;;;;19.90;11.82;;;5.70;99.90;;;;;;5017080;28;20096;-77
2021/01/28 04:23:05;;;;;;;21.77;12.48;;;5.70;99.90;;;;;;5018863;28;20151;-78
2021/01/28 04:25:33;;;;;;;20.25;11.52;;;5.70;99.90;;;;;;5017905;28;20137;-77
2021/01/28 04:27:59;;;;;;;19.92;11.15;;;5.70;99.90;;;;;;5019272;28;20105;-78
2021/01/28 04:30:28;;;;;;;20.27;10.93;;;5.80;99.90;;;;;;5018543;28;20161;-77
2021/01/28 04:32:55;;;;;;;19.95;12.00;;;5.80;99.90;;;;;;5015880;28;20142;-78
2021/01/28 04:35:22;;;;;;;21.95;11.93;;;5.70;99.90;;;;;;5015501;28;20473;-77
2021/01/28 04:37:49;;;;;;;23.30;13.52;;;5.70;99.90;;;;;;5015239;28;20203;-77
2021/01/28 04:40:26;;;;;;;26.83;13.77;;;5.60;99.90;;;;;;5015562;28;20088;-77
2021/01/28 04:42:54;;;;;;;23.50;13.73;;;5.60;99.90;;;;;;5015520;28;20112;-77
2021/01/28 04:45:23;;;;;;;27.95;14.05;;;5.60;99.90;;;;;;5015819;28;20133;-78
2021/01/28 04:47:52;;;;;;;32.67;15.80;;;5.60;99.90;;;;;;5016015;28;20049;-78
2021/01/28 04:50:23;;;;;;;31.10;14.27;;;5.50;99.90;;;;;;5016234;28;20137;-78
2021/01/28 04:52:51;;;;;;;30.50;15.88;;;5.50;99.90;;;;;;5016495;28;20137;-76
2021/01/28 04:55:23;;;;;;;27.48;15.02;;;5.50;99.90;;;;;;5015545;28;20054;-77
2021/01/28 04:57:49;;;;;;;28.88;15.80;;;5.50;99.90;;;;;;5016027;28;20140;-78
2021/01/28 05:00:17;;;;;;;31.08;15.65;;;5.50;99.90;;;;;;5017101;28;20493;-77
2021/01/28 05:02:44;;;;;;;25.67;15.18;;;5.40;99.90;;;;;;5017036;28;20143;-78
2021/01/28 05:05:12;;;;;;;28.35;15.05;;;5.40;99.90;;;;;;5015526;28;20136;-78
2021/01/28 05:07:40;;;;;;;30.38;15.25;;;5.40;99.90;;;;;;5015705;28;20054;-76
2021/01/28 05:10:15;;;;;;;27.35;14.80;;;5.40;99.90;;;;;;5015233;28;20085;-76
2021/01/28 05:12:41;;;;;;;27.27;15.43;;;5.40;99.90;;;;;;5014888;28;20116;-77
2021/01/28 05:15:27;;;;;;;31.08;14.70;;;5.30;99.90;;;;;;5014509;28;20054;-77
2021/01/28 05:18:01;;;;;;;29.63;15.55;;;5.30;99.90;;;;;;5014816;28;20056;-77
2021/01/28 05:20:29;;;;;;;33.90;16.13;;;5.20;99.90;;;;;;5017774;28;20144;-78
2021/01/28 05:23:01;;;;;;;26.52;16.20;;;5.10;99.90;;;;;;5016742;28;20521;-76
2021/01/28 05:25:34;;;;;;;27.05;15.80;;;5.20;99.90;;;;;;5014215;28;20517;-77
2021/01/28 05:28:17;;;;;;;26.85;13.98;;;5.20;99.90;;;;;;5013340;28;20045;-76
2021/01/28 05:30:45;;;;;;;25.17;14.02;;;5.20;99.90;;;;;;5014093;28;20138;-78
2021/01/28 05:33:29;;;;;;;27.88;14.02;;;5.20;99.90;;;;;;5014550;28;20050;-78
2021/01/28 05:36:15;;;;;;;23.10;14.07;;;5.10;99.90;;;;;;5018588;28;20132;-79
2021/01/28 05:38:44;;;;;;;26.75;13.23;;;5.10;99.90;;;;;;5018436;28;20113;-79
2021/01/28 05:41:13;;;;;;;27.08;13.35;;;5.10;99.90;;;;;;5019215;28;20085;-79
2021/01/28 05:43:43;;;;;;;24.60;13.50;;;5.10;99.90;;;;;;5018822;28;20081;-78
2021/01/28 05:46:17;;;;;;;19.92;12.50;;;5.10;99.90;;;;;;5018091;28;20081;-77
2021/01/28 05:48:45;;;;;;;19.45;12.77;;;5.10;99.90;;;;;;5019619;28;20144;-79
2021/01/28 05:51:15;;;;;;;23.50;12.50;;;5.10;99.90;;;;;;5019911;28;20096;-78
2021/01/28 05:53:56;;;;;;;21.45;12.65;;;5.10;99.90;;;;;;5019473;28;20081;-78
2021/01/28 05:56:23;;;;;;;27.17;13.73;;;5.20;99.90;;;;;;5013693;28;20128;-77
2021/01/28 05:58:55;;;;;;;20.38;12.85;;;5.10;99.90;;;;;;5012097;28;20149;-75
2021/01/28 06:01:59;;;;;;;19.58;11.65;;;5.20;99.90;;;;;;5012340;28;20137;-77
2021/01/28 06:05:12;;;;;;;19.70;12.65;;;5.20;99.90;;;;;;5011316;28;20050;-78
2021/01/28 06:08:31;;;;;;;21.65;12.63;;;5.20;99.90;;;;;;5023659;28;20077;-79
2021/01/28 06:11:40;;;;;;;20.80;12.40;;;5.20;99.90;;;;;;5020308;28;20061;-79
2021/01/28 06:14:48;;;;;;;21.08;11.90;;;5.20;99.90;;;;;;4964019;28;20398;-77
2021/01/28 06:17:38;;;;;;;20.23;12.10;;;5.10;99.90;;;;;;5007012;28;20499;-77
2021/01/28 06:20:23;;;;;;;22.08;12.10;;;5.20;99.90;;;;;;5013307;28;20092;-79
2021/01/28 06:23:06;;;;;;;22.83;12.45;;;5.10;99.90;;;;;;5014325;28;20533;-76
2021/01/28 06:26:04;;;;;;;20.95;11.55;;;5.10;99.90;;;;;;5022328;28;20081;-77
2021/01/28 06:28:53;;;;;;;21.77;12.20;;;5.10;99.90;;;;;;5020060;28;20077;-79
2021/01/28 06:31:27;;;;;;;19.35;12.48;;;5.10;99.90;;;;;;5019245;28;20096;-78
2021/01/28 06:34:13;;;;;;;19.75;12.18;;;5.10;99.90;;;;;;5012790;28;20526;-77
2021/01/28 06:36:52;;;;;;;25.15;13.43;;;5.10;99.90;;;;;;5011407;28;20474;-77
2021/01/28 06:39:23;;;;;;;26.42;13.20;;;5.10;99.90;;;;;;5012013;28;20558;-77
2021/01/28 06:42:02;;;;;;;26.83;13.95;;;5.00;99.90;;;;;;5013309;28;20137;-78
2021/01/28 06:44:33;;;;;;;28.13;13.57;;;5.00;99.90;;;;;;5013386;28;20136;-77
2021/01/28 06:47:05;;;;;;;26.40;14.32;;;5.00;99.90;;;;;;5015830;28;20133;-78
2021/01/28 06:49:51;;;;;;;22.58;13.23;;;5.00;99.90;;;;;;5015016;28;20545;-77
2021/01/28 06:52:47;;;;;;;23.90;13.63;;;5.00;99.90;;;;;;5013724;28;20077;-77
2021/01/28 06:55:27;;;;;;;21.98;13.52;;;5.10;99.90;;;;;;5018427;28;20085;-78
2021/01/28 06:58:05;;;;;;;26.63;14.05;;;5.00;99.90;;;;;;5019988;28;20592;-79
2021/01/28 07:00:36;;;;;;;26.83;14.85;;;5.00;99.90;;;;;;5017976;28;20088;-75
2021/01/28 07:03:11;;;;;;;25.35;14.35;;;5.00;99.90;;;;;;5013694;28;20054;-79
2021/01/28 07:05:56;;;;;;;23.13;14.18;;;5.00;99.90;;;;;;5018709;28;20137;-78
2021/01/28 07:08:39;;;;;;;23.95;13.57;;;5.00;99.90;;;;;;5015414;28;20429;-77
2021/01/28 07:11:06;;;;;;;29.65;15.55;;;5.00;99.90;;;;;;5015810;28;20109;-80
2021/01/28 07:13:37;;;;;;;28.48;14.63;;;5.00;99.90;;;;;;5019398;28;20092;-81
2021/01/28 07:16:10;;;;;;;25.20;14.57;;;5.00;99.90;;;;;;5018847;28;20141;-81
2021/01/28 07:18:42;;;;;;;24.75;14.25;;;5.00;99.90;;;;;;5018962;28;20113;-81
2021/01/28 07:21:27;;;;;;;18.38;11.32;;;5.00;99.90;;;;;;5019670;28;20133;-79
2021/01/28 07:24:08;;;;;;;23.70;14.52;;;4.90;99.90;;;;;;5016995;28;20056;-79
2021/01/28 07:26:52;;;;;;;23.85;12.95;;;4.90;99.90;;;;;;5018743;28;20046;-81
2021/01/28 07:30:04;;;;;;;25.38;15.23;;;4.90;99.90;;;;;;5019235;28;20088;-81
2021/01/28 07:32:55;;;;;;;24.20;13.93;;;4.90;99.90;;;;;;5019896;28;20073;-81
2021/01/28 07:35:35;;;;;;;26.33;13.38;;;4.90;99.90;;;;;;5018847;28;20100;-79
2021/01/28 07:38:40;;;;;;;22.65;12.23;;;4.90;99.90;;;;;;5019192;28;20107;-80
2021/01/28 07:41:28;;;;;;;22.75;13.32;;;4.90;99.90;;;;;;5016324;28;20078;-79
2021/01/28 07:44:11;;;;;;;21.35;12.93;;;4.90;99.90;;;;;;5016091;28;20429;-79
2021/01/28 07:46:41;;;;;;;20.92;12.88;;;4.90;99.90;;;;;;5043736;22;20068;-82
2021/01/28 07:49:18;;;;;;;19.95;12.32;;;4.90;99.90;;;;;;5049083;28;20489;-80
2021/01/28 07:51:46;;;;;;;20.20;10.75;;;4.90;99.90;;;;;;5043464;28;20049;-80
2021/01/28 07:54:36;;;;;;;19.65;12.18;;;4.90;99.90;;;;;;5044566;28;20050;-81
2021/01/28 07:57:06;;;;;;;22.42;11.95;;;4.90;99.90;;;;;;5031908;28;20053;-82
2021/01/28 07:59:38;;;;;;;19.70;12.23;;;4.90;99.90;;;;;;5023352;28;20050;-80
2021/01/28 08:02:22;;;;;;;18.67;11.38;;;4.90;99.90;;;;;;5025766;28;20497;-81
2021/01/28 08:04:54;;;;;;;20.52;12.18;;;4.90;99.90;;;;;;5025812;28;20106;-81
2021/01/28 08:07:26;;;;;;;16.17;11.43;;;4.90;99.90;;;;;;5024512;28;20049;-81
2021/01/28 08:09:55;;;;;;;18.20;11.63;;;4.90;99.90;;;;;;5022535;28;20054;-80
2021/01/28 08:12:28;;;;;;;18.30;11.48;;;4.90;99.90;;;;;;5021160;28;20057;-79
2021/01/28 08:14:56;;;;;;;20.50;11.68;;;4.90;99.90;;;;;;5020161;28;20042;-79
2021/01/28 08:17:29;;;;;;;17.42;11.15;;;4.90;99.90;;;;;;5018829;28;20050;-80
2021/01/28 08:20:17;;;;;;;17.70;11.30;;;4.90;99.90;;;;;;5020231;28;20050;-79
2021/01/28 08:22:52;;;;;;;15.80;10.98;;;5.00;99.90;;;;;;5019503;28;20054;-80
2021/01/28 08:25:20;;;;;;;16.52;10.82;;;5.00;99.90;;;;;;5019520;28;20051;-80
2021/01/28 08:27:47;;;;;;;16.83;10.75;;;5.00;99.90;;;;;;5020498;28;20124;-80
2021/01/28 08:30:16;;;;;;;16.05;10.70;;;5.10;99.90;;;;;;5022002;28;20395;-80
2021/01/28 08:32:45;;;;;;;17.10;10.20;;;5.10;99.90;;;;;;5025063;28;20050;-81
2021/01/28 08:35:16;;;;;;;15.50;10.18;;;5.10;99.90;;;;;;5024132;28;20081;-80
2021/01/28 08:37:43;;;;;;;15.75;10.15;;;5.10;99.90;;;;;;5023036;28;20077;-81
2021/01/28 08:40:15;;;;;;;15.48;9.68;;;5.20;99.90;;;;;;5024879;28;20061;-80
2021/01/28 08:42:43;;;;;;;14.07;9.13;;;5.20;99.90;;;;;;5026545;28;20104;-81
2021/01/28 08:45:18;;;;;;;12.85;8.75;;;5.20;99.90;;;;;;5028130;28;20061;-81
2021/01/28 08:47:55;;;;;;;14.30;8.85;;;5.20;99.90;;;;;;5026792;28;20050;-83
2021/01/28 08:50:26;;;;;;;12.07;8.27;;;5.20;99.90;;;;;;5028024;28;20439;-82
2021/01/28 08:52:59;;;;;;;12.43;8.50;;;5.20;99.90;;;;;;5026371;28;20080;-81
2021/01/28 08:55:28;;;;;;;16.13;8.03;;;5.20;99.90;;;;;;5025826;28;20140;-83
2021/01/28 08:58:05;;;;;;;11.10;7.88;;;5.10;99.90;;;;;;5021087;28;20077;-80
2021/01/28 09:00:32;;;;;;;12.10;7.43;;;5.10;99.90;;;;;;5025885;28;20520;-82
2021/01/28 09:03:03;;;;;;;11.13;7.32;;;5.10;99.90;;;;;;5028640;28;20061;-80
2021/01/28 09:05:32;;;;;;;11.88;6.78;;;5.10;99.90;;;;;;5030121;28;20106;-79
2021/01/28 09:08:00;;;;;;;9.50;6.43;;;5.10;99.90;;;;;;5030455;28;20139;-79
2021/01/28 09:10:34;;;;;;;10.77;7.15;;;5.10;99.90;;;;;;5030496;28;20062;-81
2021/01/28 09:13:20;;;;;;;10.90;7.03;;;5.10;99.90;;;;;;5030008;28;20057;-81
2021/01/28 09:15:48;;;;;;;9.65;6.85;;;5.10;99.90;;;;;;5029597;28;20053;-80
2021/01/28 09:18:21;;;;;;;12.13;6.78;;;5.10;99.90;;;;;;5029648;28;20046;-81
2021/01/28 09:20:47;;;;;;;;;;;5.10;99.90;;;;;;5030567;28;20421;-81
2021/01/28 09:23:16;;;;;;;10.70;6.88;;;5.10;99.90;;;;;;5029767;28;19921;-80
2021/01/28 09:25:44;;;;;;;10.45;7.15;;;5.10;99.90;;;;;;5029847;28;20061;-80
2021/01/28 09:28:14;;;;;;;11.90;7.28;;;5.10;99.90;;;;;;5030936;28;20050;-79
2021/01/28 09:30:43;;;;;;;10.27;7.00;;;5.10;99.90;;;;;;5030542;28;20046;-80
2021/01/28 09:33:25;;;;;;;12.25;7.55;;;5.10;99.90;;;;;;5031030;28;20069;-80
2021/01/28 09:36:07;;;;;;;13.25;7.57;;;5.10;99.90;;;;;;5030522;28;20054;-81
2021/01/28 09:38:34;;;;;;;10.77;6.70;;;5.10;99.90;;;;;;5030280;28;20057;-80
2021/01/28 09:41:17;;;;;;;13.18;7.72;;;5.10;99.90;;;;;;5022473;28;20514;-77
2021/01/28 09:43:44;;;;;;;8.88;6.95;;;5.20;99.90;;;;;;5025417;28;20445;-81
2021/01/28 09:46:27;;;;;;;9.43;7.30;;;5.20;99.90;;;;;;5028990;28;20074;-79
2021/01/28 09:48:58;;;;;;;10.70;7.20;;;5.20;99.90;;;;;;5027870;28;20054;-81
2021/01/28 09:51:29;;;;;;;10.38;7.13;;;5.10;99.90;;;;;;5027831;28;20050;-81
2021/01/28 09:54:04;;;;;;;9.05;7.05;;;5.20;99.90;;;;;;5026834;28;20104;-80
2021/01/28 09:56:30;;;;;;;13.13;7.50;;;5.10;99.90;;;;;;5027885;28;20491;-81
2021/01/28 09:58:56;;;;;;;11.00;6.72;;;5.10;99.90;;;;;;5028401;28;20053;-81
2021/01/28 10:01:24;;;;;;;10.32;7.10;;;5.20;99.90;;;;;;5028720;28;20046;-81
2021/01/28 10:03:51;;;;;;;10.23;7.40;;;5.20;99.90;;;;;;5029860;28;20133;-81
2021/01/28 10:06:17;;;;;;;11.50;7.57;;;5.20;99.90;;;;;;5028988;28;20057;-81
2021/01/28 10:08:44;;;;;;;10.82;7.68;;;5.20;99.90;;;;;;5028804;28;20564;-81
2021/01/28 10:11:10;;;;;;;9.90;6.75;;;5.20;99.90;;;;;;5028241;28;20065;-81
2021/01/28 10:13:37;;;;;;;13.05;7.15;;;5.30;99.90;;;;;;5029119;28;20046;-83
2021/01/28 10:16:03;;;;;;;10.15;6.97;;;5.40;99.90;;;;;;5029254;28;20068;-81
2021/01/28 10:18:31;;;;;;;10.48;7.35;;;5.40;99.90;;;;;;5028665;28;20053;-81
2021/01/28 10:20:57;;;;;;;8.75;6.60;;;5.40;99.90;;;;;;5028678;28;20053;-83
2021/01/28 10:23:24;;;;;;;9.57;7.18;;;5.40;99.90;;;;;;5028786;28;20046;-80
2021/01/28 10:25:50;;;;;;;10.48;7.45;;;5.50;99.90;;;;;;5026785;28;20069;-79
2021/01/28 10:28:16;;;;;;;9.45;6.65;;;5.60;99.90;;;;;;5030932;28;20054;-81
2021/01/28 10:30:43;;;;;;;9.77;7.20;;;5.50;99.90;;;;;;5028961;28;20057;-82
2021/01/28 10:33:11;;;;;;;9.90;7.22;;;5.50;99.90;;;;;;5028357;28;20045;-82
2021/01/28 10:35:39;;;;;;;11.50;7.65;;;5.50;99.90;;;;;;5027778;28;20079;-81
2021/01/28 10:38:06;;;;;;;9.38;7.40;;;5.60;99.90;;;;;;5029142;28;20076;-80
2021/01/28 10:40:35;;;;;;;12.13;7.63;;;5.60;99.90;;;;;;5028387;28;20104;-81
2021/01/28 10:43:05;;;;;;;11.10;7.57;;;5.60;99.90;;;;;;5028811;28;20061;-81
2021/01/28 10:45:34;;;;;;;10.27;7.57;;;5.60;99.90;;;;;;5030594;28;20077;-82
2021/01/28 10:48:02;;;;;;;10.48;7.75;;;5.60;99.90;;;;;;5029008;28;20104;-80
2021/01/28 10:50:29;;;;;;;12.23;7.50;;;5.70;99.90;;;;;;5028036;28;20077;-80
2021/01/28 10:52:57;;;;;;;11.23;8.27;;;5.80;99.90;;;;;;5028262;28;20061;-80
2021/01/28 10:55:25;;;;;;;10.23;8.18;;;5.90;99.90;;;;;;5028735;28;20049;-80
2021/01/28 10:57:52;;;;;;;12.75;7.82;;;6.00;99.90;;;;;;5029622;28;20038;-81
2021/01/28 11:00:23;;;;;;;11.02;7.60;;;6.00;99.90;;;;;;5027588;28;20054;-82
2021/01/28 11:02:50;;;;;;;12.43;8.88;;;6.10;99.90;;;;;;5026578;28;20215;-82
2021/01/28 11:05:24;;;;;;;11.57;8.43;;;6.10;99.90;;;;;;5027379;28;20042;-81
2021/01/28 11:07:54;;;;;;;16.23;9.00;;;6.00;99.90;;;;;;5027551;28;20080;-81
2021/01/28 11:10:23;;;;;;;13.23;8.55;;;6.10;99.90;;;;;;5028189;28;20052;-83
2021/01/28 11:12:50;;;;;;;13.70;9.02;;;6.10;99.90;;;;;;5029257;28;20046;-81
2021/01/28 11:15:17;;;;;;;14.73;8.85;;;6.10;99.90;;;;;;5028197;28;20117;-82
2021/01/28 11:17:46;;;;;;;10.75;8.57;;;6.10;99.90;;;;;;5025965;28;20521;-81
2021/01/28 11:20:14;;;;;;;13.32;8.40;;;6.10;99.90;;;;;;5028080;28;20046;-81
2021/01/28 11:22:41;;;;;;;13.38;9.32;;;6.20;99.90;;;;;;5028441;28;20046;-82
2021/01/28 11:25:10;;;;;;;9.90;8.55;;;6.20;99.90;;;;;;5029456;28;20046;-83
2021/01/28 11:27:38;;;;;;;12.35;8.85;;;6.30;99.90;;;;;;5031676;28;20050;-81
2021/01/28 11:30:06;;;;;;;14.27;9.15;;;6.30;99.90;;;;;;5030463;28;20064;-79
2021/01/28 11:32:36;;;;;;;14.45;9.50;;;6.30;99.90;;;;;;5028451;28;20046;-82
2021/01/28 11:35:03;;;;;;;13.45;9.43;;;6.30;99.90;;;;;;5025474;28;20084;-82
2021/01/28 11:37:29;;;;;;;12.73;9.00;;;6.30;99.90;;;;;;5020302;28;20049;-81
2021/01/28 11:39:56;;;;;;;14.10;9.30;;;6.40;99.90;;;;;;5020882;28;20060;-78
2021/01/28 11:42:22;;;;;;;12.20;9.45;;;6.40;99.90;;;;;;5016363;28;20100;-81
2021/01/28 11:44:49;;;;;;;13.10;10.40;;;6.40;99.90;;;;;;5021383;28;20045;-81
2021/01/28 11:47:16;;;;;;;15.35;10.82;;;6.50;99.90;;;;;;5024229;28;20070;-79
2021/01/28 11:49:43;;;;;;;14.40;10.50;;;6.60;99.90;;;;;;5025314;28;20077;-79
2021/01/28 11:52:09;;;;;;;14.27;10.68;;;6.70;99.90;;;;;;5025289;28;20050;-80
2021/01/28 11:54:36;;;;;;;16.80;10.88;;;6.70;99.90;;;;;;5025092;28;20526;-80
2021/01/28 11:57:02;;;;;;;16.25;11.07;;;6.80;99.90;;;;;;5020812;28;20184;-80
2021/01/28 11:59:28;;;;;;;14.07;10.00;;;6.80;99.90;;;;;;5021482;28;20100;-81
2021/01/28 12:01:56;;;;;;;13.48;10.57;;;6.90;99.90;;;;;;5017852;28;20077;-79
2021/01/28 12:04:22;;;;;;;14.48;10.18;;;6.90;99.90;;;;;;5019885;28;20148;-81
2021/01/28 12:06:49;;;;;;;14.27;9.73;;;7.00;99.90;;;;;;5019494;28;20046;-81
2021/01/28 12:09:15;;;;;;;11.02;8.80;;;7.00;99.90;;;;;;5019340;28;20057;-79
2021/01/28 12:11:41;;;;;;;13.07;8.70;;;6.90;99.90;;;;;;5019293;28;20081;-80
2021/01/28 12:14:08;;;;;;;15.38;9.00;;;6.90;99.90;;;;;;5018470;28;20046;-79
2021/01/28 12:16:34;;;;;;;10.38;8.00;;;6.90;99.90;;;;;;5018742;28;20089;-82
2021/01/28 12:19:01;;;;;;;10.88;8.40;;;6.90;99.90;;;;;;5019576;28;20495;-80
2021/01/28 12:21:29;;;;;;;11.00;8.77;;;6.90;99.90;;;;;;5019456;28;20088;-78
2021/01/28 12:23:56;;;;;;;12.63;9.50;;;6.90;99.90;;;;;;5017833;28;20061;-78
2021/01/28 12:26:22;;;;;;;14.70;9.80;;;6.80;99.90;;;;;;5017348;28;20081;-78
2021/01/28 12:28:49;;;;;;;12.65;8.95;;;6.80;99.90;;;;;;5015118;28;20058;-78
2021/01/28 12:31:15;;;;;;;14.73;9.77;;;6.90;99.90;;;;;;5021840;28;20054;-79
2021/01/28 12:33:42;;;;;;;15.23;9.55;;;6.90;99.90;;;;;;5018733;28;20050;-80
2021/01/28 12:36:11;;;;;;;13.88;9.35;;;6.90;99.90;;;;;;5016418;28;20161;-80
2021/01/28 12:38:38;;;;;;;12.73;9.55;;;6.90;99.90;;;;;;5020210;28;20084;-80
2021/01/28 12:41:05;;;;;;;12.60;8.68;;;6.90;99.90;;;;;;5020668;28;20061;-81
2021/01/28 12:43:32;;;;;;;11.23;8.63;;;6.90;99.90;;;;;;5020554;28;20072;-78
2021/01/28 12:45:58;;;;;;;12.73;8.20;;;7.00;99.90;;;;;;5020869;28;20141;-81
2021/01/28 12:48:25;;;;;;;10.63;8.18;;;6.90;99.90;;;;;;5021616;28;20267;-82
2021/01/28 12:50:51;;;;;;;10.52;8.18;;;7.00;99.90;;;;;;5022089;28;20161;-79
2021/01/28 12:53:19;;;;;;;8.88;7.50;;;7.00;99.90;;;;;;5023305;28;20082;-79
2021/01/28 12:55:45;;;;;;;12.38;9.02;;;7.10;99.90;;;;;;5022091;28;20081;-80
2021/01/28 12:58:11;;;;;;;12.88;9.65;;;7.10;99.90;;;;;;5022986;28;20077;-79
2021/01/28 13:00:38;;;;;;;11.68;8.93;;;7.20;99.90;;;;;;5026014;28;20085;-80
2021/01/28 13:03:05;;;;;;;13.00;9.75;;;7.20;99.90;;;;;;5028486;28;20081;-80